createdAt,value
2016-06-01T00:00:41.647Z,23.28
2016-06-01T00:01:41.666Z,23.39
2016-06-01T00:02:55.766Z,23.33
2016-06-01T00:03:41.672Z,23.38
2016-06-01T00:04:41.518Z,23.33
2016-06-01T00:05:41.692Z,23.32
2016-06-01T00:06:41.694Z,23.36
2016-06-01T00:07:41.697Z,23.35
2016-06-01T00:08:42.310Z,23.39
2016-06-01T00:09:41.718Z,23.35
2016-06-01T00:10:41.571Z,23.35
2016-06-01T00:11:41.756Z,23.32
2016-06-01T00:12:41.644Z,23.32
2016-06-01T00:13:41.830Z,23.39
2016-06-01T00:14:41.858Z,23.38
2016-06-01T00:15:41.874Z,23.32
2016-06-01T00:16:41.901Z,23.33
2016-06-01T00:17:41.914Z,23.38
2016-06-01T00:18:41.926Z,23.36
2016-06-01T00:19:41.938Z,23.38
2016-06-01T00:20:41.961Z,23.38
2016-06-01T00:21:41.967Z,23.36
2016-06-01T00:22:41.973Z,23.28
2016-06-01T00:23:41.698Z,23.31
2016-06-01T00:24:42.002Z,23.31
2016-06-01T00:25:42.005Z,23.36
2016-06-01T00:26:42.009Z,23.33
2016-06-01T00:27:42.013Z,23.27
2016-06-01T00:28:42.017Z,23.36
2016-06-01T00:29:42.021Z,23.28
2016-06-01T00:30:42.040Z,23.31
2016-06-01T00:31:42.043Z,23.28
2016-06-01T00:32:42.046Z,23.32
2016-06-01T00:33:42.064Z,23.35
2016-06-01T00:34:42.052Z,23.28
2016-06-01T00:35:42.070Z,23.35
2016-06-01T00:36:41.917Z,23.28
2016-06-01T00:37:42.076Z,23.28
2016-06-01T00:38:42.094Z,23.27
2016-06-01T00:39:42.097Z,23.33
2016-06-01T00:40:42.100Z,23.32
2016-06-01T00:41:41.993Z,23.32
2016-06-01T00:42:42.105Z,23.35
2016-06-01T00:43:42.108Z,23.32
2016-06-01T00:44:42.125Z,23.28
2016-06-01T00:45:42.128Z,23.31
2016-06-01T00:46:42.131Z,23.28
2016-06-01T00:47:42.149Z,23.35
2016-06-01T00:48:42.199Z,23.32
2016-06-01T00:49:42.155Z,23.35
2016-06-01T00:50:42.002Z,23.31
2016-06-01T00:51:42.176Z,23.28
2016-06-01T00:52:42.163Z,23.28
2016-06-01T00:53:42.213Z,23.32
2016-06-01T00:54:42.043Z,23.28
2016-06-01T00:55:42.187Z,23.33
2016-06-01T00:56:42.190Z,23.31
2016-06-01T00:57:42.207Z,23.28
2016-06-01T00:58:42.210Z,23.28
2016-06-01T00:59:42.213Z,23.33
2016-06-01T01:00:42.215Z,23.32
2016-06-01T01:01:42.234Z,23.28
2016-06-01T01:02:42.237Z,23.32
2016-06-01T01:03:42.240Z,23.28
2016-06-01T01:04:42.086Z,23.33
2016-06-01T01:05:42.261Z,23.32
2016-06-01T01:06:42.247Z,23.36
2016-06-01T01:07:42.266Z,23.36
2016-06-01T01:08:42.315Z,23.28
2016-06-01T01:09:42.272Z,23.28
2016-06-01T01:10:42.274Z,23.33
2016-06-01T01:11:42.136Z,23.31
2016-06-01T01:12:41.983Z,23.31
2016-06-01T01:13:42.157Z,23.35
2016-06-01T01:14:42.316Z,23.27
2016-06-01T01:15:42.319Z,23.32
2016-06-01T01:16:42.166Z,23.33
2016-06-01T01:17:42.324Z,23.35
2016-06-01T01:18:42.327Z,23.35
2016-06-01T01:19:42.329Z,23.31
2016-06-01T01:20:42.191Z,23.32
2016-06-01T01:21:42.335Z,23.33
2016-06-01T01:22:42.353Z,23.32
2016-06-01T01:23:42.355Z,23.31
2016-06-01T01:24:42.218Z,23.33
2016-06-01T01:25:42.377Z,23.32
2016-06-01T01:26:42.379Z,23.32
2016-06-01T01:27:42.398Z,23.27
2016-06-01T01:28:42.385Z,23.31
2016-06-01T01:29:42.404Z,23.33
2016-06-01T01:30:42.406Z,23.28
2016-06-01T01:31:42.408Z,23.28
2016-06-01T01:32:56.507Z,23.23
2016-06-01T01:33:42.429Z,23.31
2016-06-01T01:34:42.417Z,23.32
2016-06-01T01:35:42.434Z,23.32
2016-06-01T01:36:42.437Z,23.31
2016-06-01T01:37:42.440Z,23.28
2016-06-01T01:38:42.459Z,23.33
2016-06-01T01:39:42.461Z,23.27
2016-06-01T01:40:42.480Z,23.33
2016-06-01T01:41:42.466Z,23.33
2016-06-01T01:42:42.469Z,23.32
2016-06-01T01:43:42.488Z,23.32
2016-06-01T01:44:42.491Z,23.35
2016-06-01T01:45:42.493Z,23.32
2016-06-01T01:46:42.339Z,23.35
2016-06-01T01:47:42.186Z,23.32
2016-06-01T01:48:42.502Z,23.28
2016-06-01T01:49:42.363Z,23.17
2016-06-01T01:50:42.585Z,23.33
2016-06-01T01:51:42.369Z,23.31
2016-06-01T01:52:42.387Z,23.32
2016-06-01T01:53:43.015Z,23.31
2016-06-01T01:54:42.548Z,23.32
2016-06-01T01:55:42.551Z,23.28
2016-06-01T01:56:42.569Z,23.35
2016-06-01T01:57:42.572Z,23.32
2016-06-01T01:58:42.574Z,23.35
2016-06-01T01:59:42.421Z,23.28
2016-06-01T02:00:42.580Z,23.32
2016-06-01T02:01:42.598Z,23.36
2016-06-01T02:02:42.601Z,23.33
2016-06-01T02:03:42.603Z,23.23
2016-06-01T02:04:42.607Z,23.32
2016-06-01T02:05:42.609Z,23.35
2016-06-01T02:06:42.612Z,23.28
2016-06-01T02:07:42.631Z,23.33
2016-06-01T02:08:42.992Z,23.28
2016-06-01T02:09:43.291Z,23.32
2016-06-01T02:10:42.639Z,23.28
2016-06-01T02:11:42.641Z,23.31
2016-06-01T02:12:42.644Z,23.33
2016-06-01T02:13:42.662Z,23.35
2016-06-01T02:14:42.664Z,23.35
2016-06-01T02:15:42.667Z,23.35
2016-06-01T02:16:42.686Z,23.32
2016-06-01T02:17:42.689Z,23.31
2016-06-01T02:18:42.691Z,23.28
2016-06-01T02:19:42.538Z,23.36
2016-06-01T02:20:42.696Z,23.32
2016-06-01T02:21:42.699Z,23.31
2016-06-01T02:22:42.561Z,23.35
2016-06-01T02:23:42.735Z,23.35
2016-06-01T02:24:43.020Z,23.28
2016-06-01T02:25:42.741Z,23.32
2016-06-01T02:26:42.728Z,23.28
2016-06-01T02:27:42.746Z,23.36
2016-06-01T02:28:42.749Z,23.28
2016-06-01T02:29:42.751Z,23.36
2016-06-01T02:30:42.771Z,23.35
2016-06-01T02:31:42.618Z,23.35
2016-06-01T02:32:42.775Z,23.33
2016-06-01T02:33:42.794Z,23.35
2016-06-01T02:34:42.781Z,23.31
2016-06-01T02:35:42.799Z,23.32
2016-06-01T02:36:42.646Z,23.31
2016-06-01T02:37:42.804Z,23.31
2016-06-01T02:38:42.510Z,23.31
2016-06-01T02:39:42.716Z,23.33
2016-06-01T02:40:42.828Z,23.31
2016-06-01T02:41:42.831Z,23.32
2016-06-01T02:42:42.834Z,23.32
2016-06-01T02:43:42.837Z,23.28
2016-06-01T02:44:42.839Z,23.31
2016-06-01T02:45:42.904Z,23.35
2016-06-01T02:46:42.688Z,23.32
2016-06-01T02:47:42.910Z,23.27
2016-06-01T02:48:42.772Z,23.28
2016-06-01T02:49:42.931Z,23.28
2016-06-01T02:50:42.918Z,23.32
2016-06-01T02:51:42.873Z,23.35
2016-06-01T02:52:42.735Z,23.27
2016-06-01T02:53:42.880Z,23.32
2016-06-01T02:54:42.882Z,23.31
2016-06-01T02:55:42.744Z,23.25
2016-06-01T02:56:42.966Z,23.36
2016-06-01T02:57:42.765Z,23.32
2016-06-01T02:58:42.923Z,23.31
2016-06-01T02:59:42.927Z,23.35
2016-06-01T03:00:42.788Z,23.32
2016-06-01T03:01:42.963Z,23.19
2016-06-01T03:02:42.951Z,23.33
2016-06-01T03:03:42.953Z,23.31
2016-06-01T03:04:42.798Z,23.35
2016-06-01T03:05:42.959Z,23.28
2016-06-01T03:06:42.976Z,23.31
2016-06-01T03:07:42.964Z,23.33
2016-06-01T03:08:43.232Z,23.36
2016-06-01T03:09:43.015Z,23.31
2016-06-01T03:10:42.831Z,23.31
2016-06-01T03:11:42.692Z,23.22
2016-06-01T03:12:42.993Z,23.28
2016-06-01T03:13:43.011Z,23.35
2016-06-01T03:14:43.029Z,23.36
2016-06-01T03:15:42.860Z,23.32
2016-06-01T03:16:42.722Z,23.31
2016-06-01T03:17:43.037Z,23.35
2016-06-01T03:18:43.056Z,23.36
2016-06-01T03:19:43.042Z,23.28
2016-06-01T03:20:43.045Z,23.31
2016-06-01T03:21:43.064Z,23.32
2016-06-01T03:22:42.910Z,23.31
2016-06-01T03:23:43.210Z,23.2
2016-06-01T03:24:43.791Z,23.22
2016-06-01T03:25:43.075Z,23.31
2016-06-01T03:26:43.077Z,23.15
2016-06-01T03:27:43.096Z,23.23
2016-06-01T03:28:43.099Z,23.17
2016-06-01T03:29:43.101Z,23.27
2016-06-01T03:30:43.119Z,23.19
2016-06-01T03:31:43.122Z,23.23
2016-06-01T03:33:11.315Z,23.25
2016-06-01T03:33:43.127Z,23.13
2016-06-01T03:34:43.145Z,23.15
2016-06-01T03:35:43.148Z,23.23
2016-06-01T03:36:43.135Z,23.22
2016-06-01T03:37:43.138Z,23.22
2016-06-01T03:38:43.266Z,23.23
2016-06-01T03:39:43.159Z,23.25
2016-06-01T03:40:43.161Z,23.27
2016-06-01T03:41:43.164Z,23.2
2016-06-01T03:42:43.183Z,23.31
2016-06-01T03:43:43.029Z,23.17
2016-06-01T03:44:43.189Z,23.17
2016-06-01T03:45:43.207Z,23.22
2016-06-01T03:46:43.208Z,23.16
2016-06-01T03:47:43.211Z,23.16
2016-06-01T03:48:43.214Z,23.16
2016-06-01T03:49:43.061Z,23.17
2016-06-01T03:50:43.219Z,23.17
2016-06-01T03:51:43.223Z,23.17
2016-06-01T03:52:43.224Z,23.13
2016-06-01T03:53:43.478Z,23.27
2016-06-01T03:54:43.247Z,23.2
2016-06-01T03:55:43.296Z,23.13
2016-06-01T03:56:43.267Z,23.15
2016-06-01T03:57:43.270Z,23.2
2016-06-01T03:58:43.272Z,23.23
2016-06-01T03:59:43.275Z,23.22
2016-06-01T04:00:43.293Z,23.13
2016-06-01T04:01:43.296Z,23.19
2016-06-01T04:02:57.396Z,23.13
2016-06-01T04:03:43.318Z,23.16
2016-06-01T04:04:43.305Z,23.16
2016-06-01T04:05:43.322Z,23.19
2016-06-01T04:06:43.326Z,23.17
2016-06-01T04:07:43.329Z,23.27
2016-06-01T04:08:44.174Z,23.25
2016-06-01T04:09:43.787Z,23.13
2016-06-01T04:10:43.352Z,23.15
2016-06-01T04:11:43.370Z,23.15
2016-06-01T04:12:43.357Z,23.23
2016-06-01T04:13:43.376Z,23.28
2016-06-01T04:14:43.362Z,23.2
2016-06-01T04:15:43.365Z,23.22
2016-06-01T04:16:43.384Z,23.23
2016-06-01T04:17:43.386Z,23.27
2016-06-01T04:18:43.389Z,23.22
2016-06-01T04:19:43.407Z,23.16
2016-06-01T04:20:43.442Z,23.17
2016-06-01T04:21:43.256Z,23.23
2016-06-01T04:22:43.416Z,23.27
2016-06-01T04:23:43.261Z,23.22
2016-06-01T04:24:43.577Z,23.16
2016-06-01T04:25:43.423Z,23.15
2016-06-01T04:26:43.427Z,23.28
2016-06-01T04:27:43.288Z,23.16
2016-06-01T04:28:43.447Z,23.19
2016-06-01T04:29:43.449Z,23.19
2016-06-01T04:30:43.453Z,23.22
2016-06-01T04:31:43.470Z,23.16
2016-06-01T04:32:43.318Z,23.15
2016-06-01T04:33:43.476Z,23.19
2016-06-01T04:34:43.494Z,23.17
2016-06-01T04:35:43.497Z,23.22
2016-06-01T04:36:43.515Z,23.17
2016-06-01T04:37:43.502Z,23.25
2016-06-01T04:38:43.552Z,23.23
2016-06-01T04:39:43.743Z,23.12
2016-06-01T04:40:43.526Z,23.15
2016-06-01T04:41:43.529Z,23.25
2016-06-01T04:42:43.531Z,23.25
2016-06-01T04:43:43.393Z,23.17
2016-06-01T04:44:43.553Z,23.15
2016-06-01T04:45:43.555Z,23.13
2016-06-01T04:46:43.401Z,23.16
2016-06-01T04:47:43.279Z,23.19
2016-06-01T04:48:43.563Z,23.13
2016-06-01T04:49:43.598Z,23.15
2016-06-01T04:50:43.569Z,23.25
2016-06-01T04:51:43.477Z,23.16
2016-06-01T04:52:43.434Z,23.25
2016-06-01T04:53:43.295Z,23.17
2016-06-01T04:54:43.782Z,23.15
2016-06-01T04:55:43.614Z,23.2
2016-06-01T04:56:43.694Z,23.17
2016-06-01T04:57:43.635Z,23.25
2016-06-01T04:58:43.637Z,23.17
2016-06-01T04:59:43.641Z,23.17
2016-06-01T05:00:43.643Z,23.16
2016-06-01T05:01:43.505Z,23.16
2016-06-01T05:02:43.663Z,23.22
2016-06-01T05:03:43.651Z,23.16
2016-06-01T05:04:43.669Z,23.19
2016-06-01T05:05:43.671Z,23.22
2016-06-01T05:06:43.674Z,23.16
2016-06-01T05:07:43.677Z,23.13
2016-06-01T05:08:43.696Z,23.17
2016-06-01T05:09:43.699Z,23.13
2016-06-01T05:10:43.701Z,23.25
2016-06-01T05:11:43.703Z,23.19
2016-06-01T05:12:43.550Z,23.17
2016-06-01T05:13:43.709Z,23.15
2016-06-01T05:14:43.726Z,23.17
2016-06-01T05:15:43.729Z,23.17
2016-06-01T05:16:43.732Z,23.19
2016-06-01T05:17:43.735Z,23.25
2016-06-01T05:18:43.753Z,23.16
2016-06-01T05:19:43.756Z,23.25
2016-06-01T05:20:43.603Z,23.19
2016-06-01T05:21:43.637Z,23.13
2016-06-01T05:22:43.780Z,23.13
2016-06-01T05:23:43.782Z,23.13
2016-06-01T05:24:43.801Z,23.13
2016-06-01T05:25:43.788Z,23.19
2016-06-01T05:26:43.806Z,23.16
2016-06-01T05:27:43.825Z,23.15
2016-06-01T05:28:43.655Z,23.16
2016-06-01T05:29:43.814Z,23.15
2016-06-01T05:30:43.817Z,23.13
2016-06-01T05:31:43.679Z,23.15
2016-06-01T05:32:57.932Z,23.15
2016-06-01T05:33:43.841Z,23.23
2016-06-01T05:34:43.843Z,23.16
2016-06-01T05:35:43.846Z,23.19
2016-06-01T05:36:43.865Z,23.15
2016-06-01T05:37:43.711Z,23.28
2016-06-01T05:38:43.885Z,23.19
2016-06-01T05:39:44.013Z,23.23
2016-06-01T05:40:43.875Z,23.2
2016-06-01T05:41:43.893Z,23.25
2016-06-01T05:42:43.896Z,23.13
2016-06-01T05:43:43.898Z,23.19
2016-06-01T05:44:43.901Z,23.23
2016-06-01T05:45:43.920Z,23.2
2016-06-01T05:46:43.767Z,23.22
2016-06-01T05:47:43.909Z,23.22
2016-06-01T05:48:43.928Z,23.2
2016-06-01T05:49:43.993Z,23.2
2016-06-01T05:50:43.949Z,23.27
2016-06-01T05:51:43.842Z,23.19
2016-06-01T05:52:43.954Z,23.25
2016-06-01T05:53:43.831Z,23.35
2016-06-01T05:54:44.897Z,23.23
2016-06-01T05:55:43.978Z,23.27
2016-06-01T05:56:44.044Z,23.27
2016-06-01T05:57:43.999Z,23.27
2016-06-01T05:58:43.830Z,23.2
2016-06-01T05:59:43.989Z,23.23
2016-06-01T06:00:43.992Z,23.28
2016-06-01T06:01:44.010Z,23.27
2016-06-01T06:02:43.856Z,23.35
2016-06-01T06:03:44.016Z,23.32
2016-06-01T06:04:44.018Z,23.28
2016-06-01T06:05:44.035Z,23.32
2016-06-01T06:06:44.038Z,23.32
2016-06-01T06:07:44.041Z,23.32
2016-06-01T06:08:44.310Z,23.32
2016-06-01T06:09:44.187Z,23.31
2016-06-01T06:10:46.456Z,23.33
2016-06-01T06:11:44.068Z,23.33
2016-06-01T06:12:44.071Z,23.31
2016-06-01T06:13:44.090Z,23.35
2016-06-01T06:14:44.076Z,23.35
2016-06-01T06:15:47.672Z,23.28
2016-06-01T06:16:44.097Z,23.35
2016-06-01T06:17:44.115Z,23.32
2016-06-01T06:18:44.102Z,23.27
2016-06-01T06:19:44.120Z,23.32
2016-06-01T06:20:45.904Z,23.38
2016-06-01T06:21:44.125Z,23.31
2016-06-01T06:22:44.128Z,23.31
2016-06-01T06:23:44.148Z,23.36
2016-06-01T06:24:44.040Z,23.35
2016-06-01T06:25:47.090Z,23.28
2016-06-01T06:26:44.155Z,23.32
2016-06-01T06:27:43.845Z,23.36
2016-06-01T06:28:44.160Z,23.33
2016-06-01T06:29:44.179Z,23.33
2016-06-01T06:30:44.181Z,23.32
2016-06-01T06:31:44.183Z,23.36
2016-06-01T06:32:44.202Z,23.31
2016-06-01T06:33:44.205Z,23.33
2016-06-01T06:34:44.067Z,23.36
2016-06-01T06:35:44.742Z,23.33
2016-06-01T06:36:44.213Z,23.28
2016-06-01T06:37:44.232Z,23.33
2016-06-01T06:38:44.156Z,23.22
2016-06-01T06:39:44.096Z,23.31
2016-06-01T06:40:45.365Z,23.25
2016-06-01T06:41:44.258Z,23.2
2016-06-01T06:42:44.246Z,23.25
2016-06-01T06:43:44.279Z,23.28
2016-06-01T06:44:44.282Z,23.31
2016-06-01T06:45:44.284Z,23.15
2016-06-01T06:46:44.271Z,23.17
2016-06-01T06:47:44.306Z,23.19
2016-06-01T06:48:44.308Z,23.27
2016-06-01T06:49:44.295Z,23.23
2016-06-01T06:50:45.985Z,23.23
2016-06-01T06:51:44.317Z,23.23
2016-06-01T06:52:44.365Z,23.17
2016-06-01T06:53:44.180Z,23.17
2016-06-01T06:54:45.386Z,23.23
2016-06-01T06:55:44.342Z,23.23
2016-06-01T06:56:44.345Z,23.2
2016-06-01T06:57:44.395Z,23.27
2016-06-01T06:58:44.351Z,23.25
2016-06-01T06:59:44.369Z,23.27
2016-06-01T07:00:44.746Z,23.23
2016-06-01T07:01:44.374Z,23.23
2016-06-01T07:02:44.377Z,23.23
2016-06-01T07:03:44.380Z,23.17
2016-06-01T07:04:44.398Z,23.23
2016-06-01T07:05:44.683Z,23.2
2016-06-01T07:06:44.403Z,23.22
2016-06-01T07:07:44.405Z,23.2
2016-06-01T07:08:44.753Z,23.22
2016-06-01T07:09:44.427Z,23.2
2016-06-01T07:10:44.774Z,23.23
2016-06-01T07:11:44.448Z,23.31
2016-06-01T07:12:44.451Z,23.27
2016-06-01T07:13:44.438Z,23.27
2016-06-01T07:14:44.456Z,23.27
2016-06-01T07:15:46.584Z,23.22
2016-06-01T07:16:44.461Z,23.23
2016-06-01T07:17:44.465Z,23.27
2016-06-01T07:18:44.482Z,23.22
2016-06-01T07:19:44.485Z,23.27
2016-06-01T07:20:44.488Z,23.23
2016-06-01T07:21:44.490Z,23.31
2016-06-01T07:22:44.525Z,23.25
2016-06-01T07:23:45.433Z,23.35
2016-06-01T07:24:44.233Z,23.31
2016-06-01T07:25:46.173Z,23.25
2016-06-01T07:26:44.520Z,23.2
2016-06-01T07:27:44.522Z,23.22
2016-06-01T07:28:44.556Z,23.31
2016-06-01T07:29:44.544Z,23.32
2016-06-01T07:30:44.639Z,23.22
2016-06-01T07:31:44.549Z,23.16
2016-06-01T07:32:44.552Z,23.32
2016-06-01T07:33:44.555Z,23.17
2016-06-01T07:34:44.572Z,23.28
2016-06-01T07:35:45.669Z,23.33
2016-06-01T07:36:44.422Z,23.19
2016-06-01T07:37:44.580Z,23.23
2016-06-01T07:38:44.598Z,23.19
2016-06-01T07:39:44.601Z,23.36
2016-06-01T07:40:45.010Z,23.22
2016-06-01T07:41:44.607Z,23.22
2016-06-01T07:42:44.625Z,23.27
2016-06-01T07:43:44.628Z,23.23
2016-06-01T07:44:44.646Z,23.31
2016-06-01T07:45:45.804Z,23.25
2016-06-01T07:46:44.651Z,23.22
2016-06-01T07:47:44.638Z,23.17
2016-06-01T07:48:44.657Z,23.25
2016-06-01T07:49:44.660Z,23.32
2016-06-01T07:50:46.037Z,23.17
2016-06-01T07:51:44.681Z,23.19
2016-06-01T07:52:44.683Z,23.25
2016-06-01T07:53:45.639Z,23.12
2016-06-01T07:54:45.126Z,23.22
2016-06-01T07:55:47.614Z,23.2
2016-06-01T07:56:44.709Z,23.23
2016-06-01T07:57:44.556Z,23.28
2016-06-01T07:58:44.559Z,23.27
2016-06-01T07:59:44.717Z,23.23
2016-06-01T08:00:45.299Z,23.22
2016-06-01T08:01:44.738Z,23.22
2016-06-01T08:02:44.725Z,23.17
2016-06-01T08:03:44.744Z,23.19
2016-06-01T08:04:44.763Z,23.2
2016-06-01T08:05:45.499Z,23.22
2016-06-01T08:06:44.768Z,23.22
2016-06-01T08:07:44.771Z,23.23
2016-06-01T08:08:44.633Z,23.2
2016-06-01T08:09:44.479Z,23.27
2016-06-01T08:10:46.857Z,23.27
2016-06-01T08:11:44.781Z,23.22
2016-06-01T08:12:44.643Z,23.25
2016-06-01T08:13:44.802Z,23.19
2016-06-01T08:14:44.821Z,23.13
2016-06-01T08:15:47.714Z,23.15
2016-06-01T08:16:44.810Z,23.22
2016-06-01T08:17:44.829Z,23.23
2016-06-01T08:18:44.690Z,23.13
2016-06-01T08:19:44.678Z,23.19
2016-06-01T08:20:44.696Z,23.27
2016-06-01T08:21:44.855Z,23.19
2016-06-01T08:22:44.858Z,23.23
2016-06-01T08:23:44.876Z,23.22
2016-06-01T08:24:45.347Z,23.27
2016-06-01T08:25:44.866Z,23.27
2016-06-01T08:26:44.884Z,23.22
2016-06-01T08:27:44.746Z,23.25
2016-06-01T08:28:44.905Z,23.23
2016-06-01T08:29:44.908Z,23.25
2016-06-01T08:30:46.051Z,23.28
2016-06-01T08:31:44.914Z,23.28
2016-06-01T08:32:44.916Z,23.31
2016-06-01T08:33:44.918Z,23.32
2016-06-01T08:34:44.781Z,23.22
2016-06-01T08:35:44.939Z,23.22
2016-06-01T08:36:44.942Z,23.23
2016-06-01T08:37:44.945Z,23.17
2016-06-01T08:38:45.463Z,23.16
2016-06-01T08:39:44.982Z,23.19
2016-06-01T08:40:46.610Z,23.23
2016-06-01T08:41:44.971Z,23.25
2016-06-01T08:42:44.990Z,23.35
2016-06-01T08:43:44.977Z,23.2
2016-06-01T08:44:44.996Z,23.31
2016-06-01T08:45:45.123Z,23.23
2016-06-01T08:46:45.001Z,23.25
2016-06-01T08:47:45.004Z,23.27
2016-06-01T08:48:45.007Z,23.2
2016-06-01T08:49:45.024Z,23.19
2016-06-01T08:50:45.026Z,23.16
2016-06-01T08:51:45.029Z,23.22
2016-06-01T08:52:45.032Z,23.2
2016-06-01T08:53:45.098Z,23.25
2016-06-01T08:54:45.569Z,23.19
2016-06-01T08:55:47.056Z,23.23
2016-06-01T08:56:45.059Z,23.23
2016-06-01T08:57:45.062Z,23.23
2016-06-01T08:58:45.064Z,23.25
2016-06-01T08:59:44.925Z,23.23
2016-06-01T09:00:45.085Z,23.2
2016-06-01T09:01:45.103Z,23.19
2016-06-01T09:02:45.122Z,23.25
2016-06-01T09:03:45.109Z,23.25
2016-06-01T09:04:45.111Z,23.22
2016-06-01T09:05:45.114Z,23.28
2016-06-01T09:06:45.117Z,23.22
2016-06-01T09:07:44.978Z,23.23
2016-06-01T09:08:45.122Z,23.27
2016-06-01T09:09:45.249Z,23.19
2016-06-01T09:10:45.143Z,23.31
2016-06-01T09:11:44.989Z,23.2
2016-06-01T09:12:45.164Z,23.27
2016-06-01T09:13:45.167Z,23.19
2016-06-01T09:14:45.169Z,23.27
2016-06-01T09:15:45.173Z,23.23
2016-06-01T09:16:45.044Z,23.19
2016-06-01T09:17:45.243Z,23.17
2016-06-01T09:18:45.113Z,23.27
2016-06-01T09:19:45.359Z,23.25
2016-06-01T09:20:45.338Z,23.19
2016-06-01T09:21:45.350Z,23.22
2016-06-01T09:22:45.360Z,23.22
2016-06-01T09:23:45.372Z,23.23
2016-06-01T09:24:45.679Z,23.23
2016-06-01T09:25:45.394Z,23.23
2016-06-01T09:26:45.415Z,23.15
2016-06-01T09:27:45.421Z,23.19
2016-06-01T09:28:45.426Z,23.22
2016-06-01T09:29:45.432Z,23.2
2016-06-01T09:30:45.438Z,23.16
2016-06-01T09:31:45.457Z,23.19
2016-06-01T09:32:45.462Z,23.23
2016-06-01T09:33:45.466Z,23.19
2016-06-01T09:34:45.469Z,23.19
2016-06-01T09:35:45.488Z,23.32
2016-06-01T09:36:45.491Z,23.23
2016-06-01T09:37:45.494Z,23.28
2016-06-01T09:38:45.497Z,23.19
2016-06-01T09:39:45.360Z,23.25
2016-06-01T09:40:45.503Z,23.17
2016-06-01T09:41:45.523Z,23.27
2016-06-01T09:42:45.557Z,23.31
2016-06-01T09:43:45.544Z,23.19
2016-06-01T09:44:45.531Z,23.27
2016-06-01T09:45:45.550Z,23.2
2016-06-01T09:46:45.553Z,23.32
2016-06-01T09:47:45.587Z,23.25
2016-06-01T09:48:45.559Z,23.32
2016-06-01T09:49:45.420Z,23.32
2016-06-01T09:50:45.579Z,23.19
2016-06-01T09:51:45.582Z,23.28
2016-06-01T09:52:45.601Z,23.32
2016-06-01T09:53:45.650Z,23.2
2016-06-01T09:54:45.605Z,23.25
2016-06-01T09:55:45.390Z,23.33
2016-06-01T09:56:45.611Z,23.33
2016-06-01T09:57:45.614Z,23.27
2016-06-01T09:58:45.632Z,23.25
2016-06-01T09:59:45.635Z,23.27
2016-06-01T10:00:45.638Z,23.32
2016-06-01T10:01:45.656Z,23.31
2016-06-01T10:02:45.644Z,23.32
2016-06-01T10:03:45.661Z,23.22
2016-06-01T10:04:45.663Z,23.23
2016-06-01T10:05:45.667Z,23.35
2016-06-01T10:06:45.700Z,23.28
2016-06-01T10:07:45.672Z,23.23
2016-06-01T10:08:45.690Z,23.31
2016-06-01T10:09:46.130Z,23.33
2016-06-01T10:10:45.696Z,23.33
2016-06-01T10:11:45.714Z,23.31
2016-06-01T10:12:45.733Z,23.32
2016-06-01T10:13:45.735Z,23.33
2016-06-01T10:14:45.737Z,23.32
2016-06-01T10:15:45.741Z,23.28
2016-06-01T10:16:45.587Z,23.31
2016-06-01T10:17:45.761Z,23.32
2016-06-01T10:18:45.748Z,23.33
2016-06-01T10:19:45.751Z,23.33
2016-06-01T10:20:45.754Z,23.32
2016-06-01T10:21:45.772Z,23.16
2016-06-01T10:22:45.775Z,22.83
2016-06-01T10:23:45.778Z,22.43
2016-06-01T10:24:46.062Z,22.02
2016-06-01T10:25:45.784Z,21.82
2016-06-01T10:26:45.786Z,21.96
2016-06-01T10:27:45.803Z,22.06
2016-06-01T10:28:45.791Z,22.14
2016-06-01T10:29:45.794Z,22.09
2016-06-01T10:30:45.484Z,22.12
2016-06-01T10:31:45.642Z,21.83
2016-06-01T10:32:45.802Z,21.98
2016-06-01T10:33:45.805Z,22.25
2016-06-01T10:34:45.808Z,22.02
2016-06-01T10:35:45.810Z,21.84
2016-06-01T10:36:45.656Z,21.94
2016-06-01T10:37:45.502Z,21.84
2016-06-01T10:38:45.834Z,21.84
2016-06-01T10:39:45.680Z,21.91
2016-06-01T10:40:45.916Z,22
2016-06-01T10:41:45.686Z,21.91
2016-06-01T10:42:45.829Z,21.96
2016-06-01T10:43:45.832Z,21.79
2016-06-01T10:44:45.693Z,21.94
2016-06-01T10:45:45.696Z,21.77
2016-06-01T10:46:45.839Z,21.88
2016-06-01T10:47:45.858Z,21.94
2016-06-01T10:48:45.845Z,21.99
2016-06-01T10:49:45.863Z,22.02
2016-06-01T10:50:45.694Z,21.94
2016-06-01T10:51:45.697Z,22.06
2016-06-01T10:52:45.856Z,22.03
2016-06-01T10:53:45.920Z,21.71
2016-06-01T10:54:45.908Z,21.67
2016-06-01T10:55:46.254Z,22.14
2016-06-01T10:56:45.898Z,22.02
2016-06-01T10:57:45.900Z,22.05
2016-06-01T10:58:45.887Z,21.68
2016-06-01T10:59:45.875Z,21.8
2016-06-01T11:00:45.893Z,21.9
2016-06-01T11:01:45.881Z,21.9
2016-06-01T11:02:45.772Z,21.88
2016-06-01T11:03:45.744Z,21.9
2016-06-01T11:04:45.888Z,21.94
2016-06-01T11:05:45.734Z,22.12
2016-06-01T11:06:45.908Z,22.25
2016-06-01T11:07:45.896Z,22.33
2016-06-01T11:08:45.914Z,22.18
2016-06-01T11:09:45.917Z,22.15
2016-06-01T11:10:45.904Z,22.06
2016-06-01T11:11:45.907Z,22.06
2016-06-01T11:12:45.909Z,22.24
2016-06-01T11:13:45.927Z,22.45
2016-06-01T11:14:45.915Z,22.22
2016-06-01T11:15:45.777Z,22.3
2016-06-01T11:16:45.920Z,22.47
2016-06-01T11:17:45.923Z,22.61
2016-06-01T11:18:45.941Z,22.54
2016-06-01T11:19:45.632Z,22.6
2016-06-01T11:20:45.962Z,22.72
2016-06-01T11:21:45.965Z,22.83
2016-06-01T11:22:45.967Z,22.83
2016-06-01T11:23:45.954Z,22.86
2016-06-01T11:24:45.817Z,22.92
2016-06-01T11:25:45.976Z,22.91
2016-06-01T11:26:45.978Z,22.86
2016-06-01T11:27:45.981Z,22.86
2016-06-01T11:28:45.984Z,22.68
2016-06-01T11:29:45.987Z,22.86
2016-06-01T11:30:45.989Z,22.82
2016-06-01T11:31:45.991Z,22.57
2016-06-01T11:32:45.994Z,22.79
2016-06-01T11:33:46.028Z,22.42
2016-06-01T11:34:46.016Z,22.52
2016-06-01T11:35:46.003Z,22.25
2016-06-01T11:36:46.022Z,22.3
2016-06-01T11:37:46.024Z,22.12
2016-06-01T11:38:45.870Z,22
2016-06-01T11:39:45.889Z,22.4
2016-06-01T11:40:45.891Z,22.7
2016-06-01T11:41:45.877Z,22.83
2016-06-01T11:42:45.880Z,22.68
2016-06-01T11:43:45.883Z,22.4
2016-06-01T11:44:46.043Z,22.61
2016-06-01T11:45:46.061Z,22.77
2016-06-01T11:46:46.063Z,22.64
2016-06-01T11:47:45.910Z,22.67
2016-06-01T11:48:46.069Z,22.31
2016-06-01T11:49:45.915Z,22.4
2016-06-01T11:50:46.074Z,22.43
2016-06-01T11:51:45.921Z,22.43
2016-06-01T11:52:45.939Z,22.72
2016-06-01T11:53:46.129Z,22.88
2016-06-01T11:54:46.100Z,22.8
2016-06-01T11:55:46.103Z,22.61
2016-06-01T11:56:45.950Z,22.8
2016-06-01T11:57:46.109Z,22.83
2016-06-01T11:58:46.158Z,22.6
2016-06-01T11:59:46.114Z,22.77
2016-06-01T12:00:45.992Z,22.51
2016-06-01T12:01:46.120Z,22.61
2016-06-01T12:02:46.122Z,22.52
2016-06-01T12:03:45.984Z,22.64
2016-06-01T12:04:46.143Z,22.6
2016-06-01T12:05:46.146Z,22.52
2016-06-01T12:06:46.147Z,22.65
2016-06-01T12:07:45.995Z,22.68
2016-06-01T12:08:46.201Z,22.91
2016-06-01T12:09:46.672Z,22.72
2016-06-01T12:10:45.862Z,22.54
2016-06-01T12:11:46.162Z,22.37
2016-06-01T12:12:46.180Z,22.18
2016-06-01T12:13:46.027Z,22.42
2016-06-01T12:14:46.186Z,22.03
2016-06-01T12:15:46.172Z,22.18
2016-06-01T12:16:46.175Z,22.33
2016-06-01T12:17:46.037Z,22.39
2016-06-01T12:18:46.196Z,22.46
2016-06-01T12:19:46.183Z,22.31
2016-06-01T12:20:46.201Z,22.28
2016-06-01T12:21:46.220Z,22.51
2016-06-01T12:22:46.035Z,22.52
2016-06-01T12:23:46.210Z,22.54
2016-06-01T12:24:46.775Z,22.61
2016-06-01T12:25:46.215Z,22.73
2016-06-01T12:26:46.062Z,22.88
2016-06-01T12:27:46.220Z,22.83
2016-06-01T12:28:46.240Z,22.57
2016-06-01T12:29:46.101Z,22.65
2016-06-01T12:30:46.244Z,22.55
2016-06-01T12:31:46.232Z,22.79
2016-06-01T12:32:46.250Z,22.92
2016-06-01T12:33:46.252Z,22.9
2016-06-01T12:34:46.270Z,22.58
2016-06-01T12:35:46.258Z,22.67
2016-06-01T12:36:46.119Z,22.79
2016-06-01T12:37:46.264Z,22.83
2016-06-01T12:38:46.109Z,22.72
2016-06-01T12:39:46.800Z,22.68
2016-06-01T12:40:46.272Z,22.79
2016-06-01T12:41:46.274Z,22.68
2016-06-01T12:42:46.277Z,22.64
2016-06-01T12:43:46.123Z,22.68
2016-06-01T12:44:46.407Z,22.52
2016-06-01T12:45:46.143Z,22.52
2016-06-01T12:46:46.147Z,22.42
2016-06-01T12:47:46.305Z,22.55
2016-06-01T12:48:46.152Z,22.54
2016-06-01T12:49:46.171Z,22.58
2016-06-01T12:50:46.173Z,22.68
2016-06-01T12:51:46.332Z,22.51
2016-06-01T12:52:46.194Z,22.21
2016-06-01T12:53:46.338Z,22.02
2016-06-01T12:54:46.402Z,22.3